sensor_id;sensor_type;location;lat;lon;timestamp;P1;durP1;ratioP1;P2;durP2;ratioP2
21645;SDS011;10984;45.712;4.800;2023-07-31T00:01:12;5.65;;;1.63;;
21645;SDS011;10984;45.712;4.800;2023-07-31T00:03:38;3.17;;;1.10;;
21645;SDS011;10984;45.712;4.800;2023-07-31T00:06:05;3.25;;;1.40;;
21645;SDS011;10984;45.712;4.800;2023-07-31T00:08:31;4.63;;;0.98;;
21645;SDS011;10984;45.712;4.800;2023-07-31T00:10:57;4.30;;;1.23;;
21645;SDS011;10984;45.712;4.800;2023-07-31T00:13:24;10.38;;;1.40;;
21645;SDS011;10984;45.712;4.800;2023-07-31T00:15:50;3.35;;;1.10;;
21645;SDS011;10984;45.712;4.800;2023-07-31T00:18:17;2.95;;;1.08;;
21645;SDS011;10984;45.712;4.800;2023-07-31T00:20:43;3.33;;;1.05;;
21645;SDS011;10984;45.712;4.800;2023-07-31T00:23:09;2.60;;;1.13;;
21645;SDS011;10984;45.712;4.800;2023-07-31T00:25:36;3.03;;;1.10;;
21645;SDS011;10984;45.712;4.800;2023-07-31T00:28:02;2.80;;;1.00;;
21645;SDS011;10984;45.712;4.800;2023-07-31T00:30:28;5.72;;;1.15;;
21645;SDS011;10984;45.712;4.800;2023-07-31T00:32:55;3.60;;;1.02;;
21645;SDS011;10984;45.712;4.800;2023-07-31T00:35:21;2.83;;;1.15;;
21645;SDS011;10984;45.712;4.800;2023-07-31T00:37:48;4.47;;;1.58;;
21645;SDS011;10984;45.712;4.800;2023-07-31T00:40:14;4.65;;;1.27;;
21645;SDS011;10984;45.712;4.800;2023-07-31T00:42:40;2.30;;;0.77;;
21645;SDS011;10984;45.712;4.800;2023-07-31T00:45:07;2.35;;;1.10;;
21645;SDS011;10984;45.712;4.800;2023-07-31T00:47:33;4.32;;;1.10;;
21645;SDS011;10984;45.712;4.800;2023-07-31T00:50:00;3.40;;;1.23;;
21645;SDS011;10984;45.712;4.800;2023-07-31T00:52:26;4.45;;;1.30;;
21645;SDS011;10984;45.712;4.800;2023-07-31T00:54:53;3.22;;;1.05;;
21645;SDS011;10984;45.712;4.800;2023-07-31T00:57:19;2.63;;;0.95;;
21645;SDS011;10984;45.712;4.800;2023-07-31T00:59:45;4.50;;;1.25;;
21645;SDS011;10984;45.712;4.800;2023-07-31T01:02:12;3.35;;;1.42;;
21645;SDS011;10984;45.712;4.800;2023-07-31T01:04:38;2.42;;;0.77;;
21645;SDS011;10984;45.712;4.800;2023-07-31T01:10:11;4.50;;;1.63;;
21645;SDS011;10984;45.712;4.800;2023-07-31T01:12:59;3.17;;;1.17;;
21645;SDS011;10984;45.712;4.800;2023-07-31T01:15:27;5.15;;;1.40;;
21645;SDS011;10984;45.712;4.800;2023-07-31T01:17:53;4.18;;;1.27;;
21645;SDS011;10984;45.712;4.800;2023-07-31T01:23:11;4.22;;;1.40;;
21645;SDS011;10984;45.712;4.800;2023-07-31T01:31:31;3.40;;;1.30;;
21645;SDS011;10984;45.712;4.800;2023-07-31T01:34:00;3.90;;;1.13;;
21645;SDS011;10984;45.712;4.800;2023-07-31T01:36:27;2.30;;;1.05;;
21645;SDS011;10984;45.712;4.800;2023-07-31T01:41:41;5.55;;;1.35;;
21645;SDS011;10984;45.712;4.800;2023-07-31T01:44:07;3.25;;;1.00;;
21645;SDS011;10984;45.712;4.800;2023-07-31T01:46:34;3.47;;;1.10;;
21645;SDS011;10984;45.712;4.800;2023-07-31T01:49:00;3.30;;;1.00;;
21645;SDS011;10984;45.712;4.800;2023-07-31T01:51:26;3.90;;;1.10;;
21645;SDS011;10984;45.712;4.800;2023-07-31T01:53:53;3.28;;;0.90;;
21645;SDS011;10984;45.712;4.800;2023-07-31T01:56:19;2.58;;;1.25;;
21645;SDS011;10984;45.712;4.800;2023-07-31T01:58:45;4.13;;;1.25;;
21645;SDS011;10984;45.712;4.800;2023-07-31T02:01:12;6.97;;;1.20;;
21645;SDS011;10984;45.712;4.800;2023-07-31T02:03:38;2.15;;;0.90;;
21645;SDS011;10984;45.712;4.800;2023-07-31T02:06:05;2.90;;;1.15;;
21645;SDS011;10984;45.712;4.800;2023-07-31T02:08:31;4.28;;;1.17;;
21645;SDS011;10984;45.712;4.800;2023-07-31T02:10:57;2.67;;;1.00;;
21645;SDS011;10984;45.712;4.800;2023-07-31T02:13:24;5.10;;;1.38;;
21645;SDS011;10984;45.712;4.800;2023-07-31T02:15:50;5.13;;;1.25;;
21645;SDS011;10984;45.712;4.800;2023-07-31T02:18:16;3.35;;;1.10;;
21645;SDS011;10984;45.712;4.800;2023-07-31T02:20:43;5.25;;;1.50;;
21645;SDS011;10984;45.712;4.800;2023-07-31T02:23:14;2.70;;;1.20;;
21645;SDS011;10984;45.712;4.800;2023-07-31T02:25:40;4.07;;;1.48;;
21645;SDS011;10984;45.712;4.800;2023-07-31T02:28:07;5.13;;;1.40;;
21645;SDS011;10984;45.712;4.800;2023-07-31T02:30:33;6.60;;;1.13;;
21645;SDS011;10984;45.712;4.800;2023-07-31T02:32:59;4.43;;;1.23;;
21645;SDS011;10984;45.712;4.800;2023-07-31T02:35:25;3.03;;;1.00;;
21645;SDS011;10984;45.712;4.800;2023-07-31T02:37:52;3.03;;;1.00;;
21645;SDS011;10984;45.712;4.800;2023-07-31T02:40:18;3.65;;;1.15;;
21645;SDS011;10984;45.712;4.800;2023-07-31T02:42:45;2.55;;;1.23;;
21645;SDS011;10984;45.712;4.800;2023-07-31T02:45:11;4.18;;;1.27;;
21645;SDS011;10984;45.712;4.800;2023-07-31T02:47:38;6.22;;;1.40;;
21645;SDS011;10984;45.712;4.800;2023-07-31T02:50:04;2.80;;;1.00;;
21645;SDS011;10984;45.712;4.800;2023-07-31T02:52:31;2.53;;;1.00;;
21645;SDS011;10984;45.712;4.800;2023-07-31T02:54:57;4.35;;;1.27;;
21645;SDS011;10984;45.712;4.800;2023-07-31T02:57:24;6.10;;;1.30;;
21645;SDS011;10984;45.712;4.800;2023-07-31T02:59:50;1.88;;;0.82;;
21645;SDS011;10984;45.712;4.800;2023-07-31T03:02:17;4.30;;;1.08;;
21645;SDS011;10984;45.712;4.800;2023-07-31T03:04:43;2.95;;;1.08;;
21645;SDS011;10984;45.712;4.800;2023-07-31T03:07:09;3.72;;;1.50;;
21645;SDS011;10984;45.712;4.800;2023-07-31T03:09:36;2.60;;;0.98;;
21645;SDS011;10984;45.712;4.800;2023-07-31T03:12:02;2.75;;;1.00;;
21645;SDS011;10984;45.712;4.800;2023-07-31T03:14:29;4.60;;;0.93;;
21645;SDS011;10984;45.712;4.800;2023-07-31T03:16:55;2.28;;;1.00;;
21645;SDS011;10984;45.712;4.800;2023-07-31T03:19:22;3.08;;;1.10;;
21645;SDS011;10984;45.712;4.800;2023-07-31T03:21:48;4.45;;;1.38;;
21645;SDS011;10984;45.712;4.800;2023-07-31T03:24:14;4.47;;;1.02;;
21645;SDS011;10984;45.712;4.800;2023-07-31T03:26:41;2.85;;;1.10;;
21645;SDS011;10984;45.712;4.800;2023-07-31T03:29:07;5.03;;;0.98;;
21645;SDS011;10984;45.712;4.800;2023-07-31T03:31:34;2.70;;;0.95;;
21645;SDS011;10984;45.712;4.800;2023-07-31T03:34:00;3.25;;;0.95;;
21645;SDS011;10984;45.712;4.800;2023-07-31T03:36:27;2.53;;;1.13;;
21645;SDS011;10984;45.712;4.800;2023-07-31T03:38:53;3.80;;;1.00;;
21645;SDS011;10984;45.712;4.800;2023-07-31T03:41:19;2.42;;;0.93;;
21645;SDS011;10984;45.712;4.800;2023-07-31T03:43:48;4.10;;;1.40;;
21645;SDS011;10984;45.712;4.800;2023-07-31T03:46:21;3.90;;;1.40;;
21645;SDS011;10984;45.712;4.800;2023-07-31T03:48:48;4.38;;;1.10;;
21645;SDS011;10984;45.712;4.800;2023-07-31T03:51:15;2.95;;;1.05;;
21645;SDS011;10984;45.712;4.800;2023-07-31T03:53:42;4.55;;;1.67;;
21645;SDS011;10984;45.712;4.800;2023-07-31T03:56:09;3.33;;;1.00;;
21645;SDS011;10984;45.712;4.800;2023-07-31T03:58:36;3.88;;;1.00;;
21645;SDS011;10984;45.712;4.800;2023-07-31T04:01:02;2.60;;;0.90;;
21645;SDS011;10984;45.712;4.800;2023-07-31T04:03:29;3.35;;;1.02;;
21645;SDS011;10984;45.712;4.800;2023-07-31T04:05:56;3.60;;;1.48;;
21645;SDS011;10984;45.712;4.800;2023-07-31T04:08:22;3.38;;;1.33;;
21645;SDS011;10984;45.712;4.800;2023-07-31T04:10:49;3.65;;;1.27;;
21645;SDS011;10984;45.712;4.800;2023-07-31T04:13:16;11.60;;;2.05;;
21645;SDS011;10984;45.712;4.800;2023-07-31T04:15:42;7.05;;;1.27;;
21645;SDS011;10984;45.712;4.800;2023-07-31T04:18:13;3.90;;;1.10;;
21645;SDS011;10984;45.712;4.800;2023-07-31T04:20:39;2.92;;;1.00;;
21645;SDS011;10984;45.712;4.800;2023-07-31T04:23:05;2.60;;;0.95;;
21645;SDS011;10984;45.712;4.800;2023-07-31T04:25:32;5.28;;;1.38;;
21645;SDS011;10984;45.712;4.800;2023-07-31T04:28:00;3.95;;;1.10;;
21645;SDS011;10984;45.712;4.800;2023-07-31T04:30:27;4.03;;;1.20;;
21645;SDS011;10984;45.712;4.800;2023-07-31T04:32:53;3.58;;;1.42;;
21645;SDS011;10984;45.712;4.800;2023-07-31T04:35:19;2.38;;;1.20;;
21645;SDS011;10984;45.712;4.800;2023-07-31T04:37:46;2.47;;;1.20;;
21645;SDS011;10984;45.712;4.800;2023-07-31T04:40:14;2.75;;;1.17;;
21645;SDS011;10984;45.712;4.800;2023-07-31T04:42:41;2.55;;;1.05;;
21645;SDS011;10984;45.712;4.800;2023-07-31T04:45:08;3.38;;;1.10;;
21645;SDS011;10984;45.712;4.800;2023-07-31T04:47:35;2.55;;;1.02;;
21645;SDS011;10984;45.712;4.800;2023-07-31T04:50:01;4.28;;;1.50;;
21645;SDS011;10984;45.712;4.800;2023-07-31T04:52:27;2.40;;;1.17;;
21645;SDS011;10984;45.712;4.800;2023-07-31T04:54:53;4.75;;;1.23;;
21645;SDS011;10984;45.712;4.800;2023-07-31T04:57:20;3.40;;;1.20;;
21645;SDS011;10984;45.712;4.800;2023-07-31T04:59:46;5.20;;;1.00;;
21645;SDS011;10984;45.712;4.800;2023-07-31T05:02:12;3.38;;;1.00;;
21645;SDS011;10984;45.712;4.800;2023-07-31T05:04:39;3.65;;;1.05;;
21645;SDS011;10984;45.712;4.800;2023-07-31T05:07:05;2.40;;;1.00;;
21645;SDS011;10984;45.712;4.800;2023-07-31T05:09:34;2.67;;;1.00;;
21645;SDS011;10984;45.712;4.800;2023-07-31T05:12:01;7.18;;;1.58;;
21645;SDS011;10984;45.712;4.800;2023-07-31T05:14:27;2.88;;;1.00;;
21645;SDS011;10984;45.712;4.800;2023-07-31T05:16:53;6.20;;;1.00;;
21645;SDS011;10984;45.712;4.800;2023-07-31T05:19:20;2.22;;;1.10;;
21645;SDS011;10984;45.712;4.800;2023-07-31T05:21:46;3.00;;;1.20;;
21645;SDS011;10984;45.712;4.800;2023-07-31T05:24:13;3.58;;;1.63;;
21645;SDS011;10984;45.712;4.800;2023-07-31T05:26:39;3.42;;;1.15;;
21645;SDS011;10984;45.712;4.800;2023-07-31T05:31:50;4.63;;;1.08;;
21645;SDS011;10984;45.712;4.800;2023-07-31T05:34:17;3.85;;;1.10;;
21645;SDS011;10984;45.712;4.800;2023-07-31T05:36:43;4.82;;;1.15;;
21645;SDS011;10984;45.712;4.800;2023-07-31T05:39:09;2.72;;;0.80;;
21645;SDS011;10984;45.712;4.800;2023-07-31T05:41:36;5.07;;;1.45;;
21645;SDS011;10984;45.712;4.800;2023-07-31T05:44:02;4.32;;;1.10;;
21645;SDS011;10984;45.712;4.800;2023-07-31T05:46:29;4.60;;;1.70;;
21645;SDS011;10984;45.712;4.800;2023-07-31T05:48:56;2.50;;;1.10;;
21645;SDS011;10984;45.712;4.800;2023-07-31T05:51:22;2.42;;;0.90;;
21645;SDS011;10984;45.712;4.800;2023-07-31T05:53:49;6.20;;;1.05;;
21645;SDS011;10984;45.712;4.800;2023-07-31T05:56:15;2.17;;;0.80;;
21645;SDS011;10984;45.712;4.800;2023-07-31T05:58:41;2.30;;;0.85;;
21645;SDS011;10984;45.712;4.800;2023-07-31T06:01:08;4.43;;;1.02;;
21645;SDS011;10984;45.712;4.800;2023-07-31T06:03:34;5.78;;;1.55;;
21645;SDS011;10984;45.712;4.800;2023-07-31T06:06:00;2.55;;;1.20;;
21645;SDS011;10984;45.712;4.800;2023-07-31T06:08:26;3.88;;;1.00;;
21645;SDS011;10984;45.712;4.800;2023-07-31T06:10:53;2.85;;;0.75;;
21645;SDS011;10984;45.712;4.800;2023-07-31T06:16:04;2.63;;;0.82;;
21645;SDS011;10984;45.712;4.800;2023-07-31T06:18:32;2.67;;;0.77;;
21645;SDS011;10984;45.712;4.800;2023-07-31T06:20:58;1.90;;;0.80;;
21645;SDS011;10984;45.712;4.800;2023-07-31T06:23:25;3.40;;;0.90;;
21645;SDS011;10984;45.712;4.800;2023-07-31T06:25:51;2.05;;;0.93;;
21645;SDS011;10984;45.712;4.800;2023-07-31T06:28:17;3.78;;;0.70;;
21645;SDS011;10984;45.712;4.800;2023-07-31T06:30:44;2.13;;;0.75;;
21645;SDS011;10984;45.712;4.800;2023-07-31T06:33:10;2.65;;;0.88;;
21645;SDS011;10984;45.712;4.800;2023-07-31T06:35:37;2.58;;;1.00;;
21645;SDS011;10984;45.712;4.800;2023-07-31T06:38:03;2.97;;;0.90;;
21645;SDS011;10984;45.712;4.800;2023-07-31T06:40:29;4.25;;;1.00;;
21645;SDS011;10984;45.712;4.800;2023-07-31T06:42:56;2.38;;;0.93;;
21645;SDS011;10984;45.712;4.800;2023-07-31T06:45:22;4.47;;;1.15;;
21645;SDS011;10984;45.712;4.800;2023-07-31T06:47:49;3.55;;;1.10;;
21645;SDS011;10984;45.712;4.800;2023-07-31T06:50:15;2.63;;;0.95;;
21645;SDS011;10984;45.712;4.800;2023-07-31T06:52:41;2.95;;;1.05;;
21645;SDS011;10984;45.712;4.800;2023-07-31T06:57:53;4.88;;;1.08;;
21645;SDS011;10984;45.712;4.800;2023-07-31T07:00:21;3.30;;;1.08;;
21645;SDS011;10984;45.712;4.800;2023-07-31T07:02:49;3.05;;;1.10;;
21645;SDS011;10984;45.712;4.800;2023-07-31T07:05:16;2.80;;;1.13;;
21645;SDS011;10984;45.712;4.800;2023-07-31T07:07:43;2.42;;;1.08;;
21645;SDS011;10984;45.712;4.800;2023-07-31T07:10:09;2.65;;;1.02;;
21645;SDS011;10984;45.712;4.800;2023-07-31T07:12:36;3.10;;;1.00;;
21645;SDS011;10984;45.712;4.800;2023-07-31T07:15:02;4.32;;;1.35;;
21645;SDS011;10984;45.712;4.800;2023-07-31T07:17:29;2.75;;;0.95;;
21645;SDS011;10984;45.712;4.800;2023-07-31T07:20:14;3.67;;;1.25;;
21645;SDS011;10984;45.712;4.800;2023-07-31T07:22:41;4.68;;;1.48;;
21645;SDS011;10984;45.712;4.800;2023-07-31T07:25:08;5.93;;;1.00;;
21645;SDS011;10984;45.712;4.800;2023-07-31T07:27:35;3.97;;;1.30;;
21645;SDS011;10984;45.712;4.800;2023-07-31T07:30:01;6.05;;;1.27;;
21645;SDS011;10984;45.712;4.800;2023-07-31T07:32:28;3.15;;;1.13;;
21645;SDS011;10984;45.712;4.800;2023-07-31T07:34:55;4.10;;;1.13;;
21645;SDS011;10984;45.712;4.800;2023-07-31T07:37:22;3.58;;;1.25;;
21645;SDS011;10984;45.712;4.800;2023-07-31T07:39:48;3.70;;;1.10;;
21645;SDS011;10984;45.712;4.800;2023-07-31T07:42:14;4.28;;;1.55;;
21645;SDS011;10984;45.712;4.800;2023-07-31T07:44:41;3.30;;;1.20;;
21645;SDS011;10984;45.712;4.800;2023-07-31T07:47:07;5.68;;;1.20;;
21645;SDS011;10984;45.712;4.800;2023-07-31T07:49:34;3.60;;;1.42;;
21645;SDS011;10984;45.712;4.800;2023-07-31T07:52:01;8.40;;;1.60;;
21645;SDS011;10984;45.712;4.800;2023-07-31T07:54:28;3.97;;;1.30;;
21645;SDS011;10984;45.712;4.800;2023-07-31T07:56:54;4.70;;;1.00;;
21645;SDS011;10984;45.712;4.800;2023-07-31T07:59:20;4.47;;;1.40;;
21645;SDS011;10984;45.712;4.800;2023-07-31T08:01:47;3.25;;;1.10;;
21645;SDS011;10984;45.712;4.800;2023-07-31T08:04:13;4.72;;;1.42;;
21645;SDS011;10984;45.712;4.800;2023-07-31T08:06:40;4.38;;;1.45;;
21645;SDS011;10984;45.712;4.800;2023-07-31T08:09:06;4.45;;;1.48;;
21645;SDS011;10984;45.712;4.800;2023-07-31T08:11:34;17.55;;;1.90;;
21645;SDS011;10984;45.712;4.800;2023-07-31T08:14:00;8.40;;;1.30;;
21645;SDS011;10984;45.712;4.800;2023-07-31T08:16:27;5.95;;;1.60;;
21645;SDS011;10984;45.712;4.800;2023-07-31T08:18:53;5.70;;;1.35;;
21645;SDS011;10984;45.712;4.800;2023-07-31T08:21:20;4.10;;;1.25;;
21645;SDS011;10984;45.712;4.800;2023-07-31T08:23:47;2.92;;;1.10;;
21645;SDS011;10984;45.712;4.800;2023-07-31T08:26:14;5.43;;;2.22;;
21645;SDS011;10984;45.712;4.800;2023-07-31T08:28:41;4.75;;;1.40;;
21645;SDS011;10984;45.712;4.800;2023-07-31T08:31:08;6.70;;;1.48;;
21645;SDS011;10984;45.712;4.800;2023-07-31T08:33:34;5.53;;;1.40;;
21645;SDS011;10984;45.712;4.800;2023-07-31T08:36:00;14.55;;;1.80;;
21645;SDS011;10984;45.712;4.800;2023-07-31T08:38:27;8.77;;;2.30;;
21645;SDS011;10984;45.712;4.800;2023-07-31T08:40:56;19.50;;;2.15;;
21645;SDS011;10984;45.712;4.800;2023-07-31T08:43:26;7.43;;;1.75;;
21645;SDS011;10984;45.712;4.800;2023-07-31T08:45:53;4.53;;;1.40;;
21645;SDS011;10984;45.712;4.800;2023-07-31T08:48:20;2.85;;;1.23;;
21645;SDS011;10984;45.712;4.800;2023-07-31T08:50:48;9.02;;;1.55;;
21645;SDS011;10984;45.712;4.800;2023-07-31T08:53:14;6.07;;;1.63;;
21645;SDS011;10984;45.712;4.800;2023-07-31T08:55:42;5.15;;;1.65;;
21645;SDS011;10984;45.712;4.800;2023-07-31T08:58:09;6.25;;;1.75;;
21645;SDS011;10984;45.712;4.800;2023-07-31T09:00:39;4.25;;;1.80;;
21645;SDS011;10984;45.712;4.800;2023-07-31T09:05:51;10.52;;;1.75;;
21645;SDS011;10984;45.712;4.800;2023-07-31T09:08:20;6.80;;;1.95;;
21645;SDS011;10984;45.712;4.800;2023-07-31T09:10:47;7.78;;;1.50;;
21645;SDS011;10984;45.712;4.800;2023-07-31T09:13:32;4.72;;;1.33;;
21645;SDS011;10984;45.712;4.800;2023-07-31T09:15:58;3.92;;;1.38;;
21645;SDS011;10984;45.712;4.800;2023-07-31T09:18:25;4.03;;;1.80;;
21645;SDS011;10984;45.712;4.800;2023-07-31T09:29:06;6.35;;;1.83;;
21645;SDS011;10984;45.712;4.800;2023-07-31T09:31:43;3.15;;;1.48;;
21645;SDS011;10984;45.712;4.800;2023-07-31T09:34:10;5.72;;;1.73;;
21645;SDS011;10984;45.712;4.800;2023-07-31T09:39:26;4.57;;;1.40;;
21645;SDS011;10984;45.712;4.800;2023-07-31T09:41:54;5.20;;;1.50;;
21645;SDS011;10984;45.712;4.800;2023-07-31T09:44:20;10.68;;;1.60;;
21645;SDS011;10984;45.712;4.800;2023-07-31T09:46:47;6.70;;;1.40;;
21645;SDS011;10984;45.712;4.800;2023-07-31T09:49:15;6.05;;;1.85;;
21645;SDS011;10984;45.712;4.800;2023-07-31T09:51:41;3.78;;;1.52;;
21645;SDS011;10984;45.712;4.800;2023-07-31T09:54:09;8.77;;;1.55;;
21645;SDS011;10984;45.712;4.800;2023-07-31T09:56:54;3.58;;;1.48;;
21645;SDS011;10984;45.712;4.800;2023-07-31T09:59:24;4.65;;;1.55;;
21645;SDS011;10984;45.712;4.800;2023-07-31T10:01:50;7.10;;;1.92;;
21645;SDS011;10984;45.712;4.800;2023-07-31T10:04:18;8.00;;;1.77;;
21645;SDS011;10984;45.712;4.800;2023-07-31T10:06:50;6.57;;;1.63;;
21645;SDS011;10984;45.712;4.800;2023-07-31T10:09:18;3.88;;;1.30;;
21645;SDS011;10984;45.712;4.800;2023-07-31T10:14:36;10.27;;;2.35;;
21645;SDS011;10984;45.712;4.800;2023-07-31T10:17:04;9.98;;;3.17;;
21645;SDS011;10984;45.712;4.800;2023-07-31T10:19:32;10.50;;;1.85;;
21645;SDS011;10984;45.712;4.800;2023-07-31T10:22:00;8.75;;;2.20;;
21645;SDS011;10984;45.712;4.800;2023-07-31T10:24:28;4.57;;;1.52;;
21645;SDS011;10984;45.712;4.800;2023-07-31T10:26:57;5.53;;;1.73;;
21645;SDS011;10984;45.712;4.800;2023-07-31T10:29:25;9.23;;;1.85;;
21645;SDS011;10984;45.712;4.800;2023-07-31T10:31:52;4.28;;;1.70;;
21645;SDS011;10984;45.712;4.800;2023-07-31T10:34:21;9.77;;;2.17;;
21645;SDS011;10984;45.712;4.800;2023-07-31T10:36:48;10.95;;;1.92;;
21645;SDS011;10984;45.712;4.800;2023-07-31T10:42:18;5.28;;;1.55;;
21645;SDS011;10984;45.712;4.800;2023-07-31T10:44:46;4.13;;;1.40;;
21645;SDS011;10984;45.712;4.800;2023-07-31T10:50:17;4.22;;;1.50;;
21645;SDS011;10984;45.712;4.800;2023-07-31T10:53:02;2.67;;;1.20;;
21645;SDS011;10984;45.712;4.800;2023-07-31T10:58:18;7.82;;;2.15;;
21645;SDS011;10984;45.712;4.800;2023-07-31T11:01:04;3.60;;;1.50;;
21645;SDS011;10984;45.712;4.800;2023-07-31T11:06:34;3.75;;;1.48;;
21645;SDS011;10984;45.712;4.800;2023-07-31T11:09:02;12.50;;;1.90;;
21645;SDS011;10984;45.712;4.800;2023-07-31T11:11:29;3.55;;;1.17;;
21645;SDS011;10984;45.712;4.800;2023-07-31T11:13:56;4.25;;;1.48;;
21645;SDS011;10984;45.712;4.800;2023-07-31T11:16:23;4.32;;;1.35;;
21645;SDS011;10984;45.712;4.800;2023-07-31T11:18:50;6.72;;;2.03;;
21645;SDS011;10984;45.712;4.800;2023-07-31T11:21:19;3.03;;;1.30;;
21645;SDS011;10984;45.712;4.800;2023-07-31T11:26:31;5.80;;;1.75;;
21645;SDS011;10984;45.712;4.800;2023-07-31T11:28:58;5.55;;;1.65;;
21645;SDS011;10984;45.712;4.800;2023-07-31T11:31:25;4.47;;;1.60;;
21645;SDS011;10984;45.712;4.800;2023-07-31T11:34:03;5.20;;;1.70;;
21645;SDS011;10984;45.712;4.800;2023-07-31T11:36:30;4.70;;;1.67;;
21645;SDS011;10984;45.712;4.800;2023-07-31T11:39:04;5.40;;;1.67;;
21645;SDS011;10984;45.712;4.800;2023-07-31T11:41:34;3.58;;;1.88;;
21645;SDS011;10984;45.712;4.800;2023-07-31T11:44:00;8.13;;;1.75;;
21645;SDS011;10984;45.712;4.800;2023-07-31T11:46:28;9.25;;;1.80;;
21645;SDS011;10984;45.712;4.800;2023-07-31T11:51:41;3.70;;;1.42;;
21645;SDS011;10984;45.712;4.800;2023-07-31T11:54:08;6.90;;;3.17;;
21645;SDS011;10984;45.712;4.800;2023-07-31T11:56:36;4.88;;;1.42;;
21645;SDS011;10984;45.712;4.800;2023-07-31T11:59:03;4.57;;;1.30;;
21645;SDS011;10984;45.712;4.800;2023-07-31T12:01:31;4.50;;;1.40;;
21645;SDS011;10984;45.712;4.800;2023-07-31T12:03:58;5.25;;;1.77;;
21645;SDS011;10984;45.712;4.800;2023-07-31T12:09:09;2.50;;;1.20;;
21645;SDS011;10984;45.712;4.800;2023-07-31T12:14:21;6.45;;;1.33;;
21645;SDS011;10984;45.712;4.800;2023-07-31T12:17:06;5.85;;;1.20;;
21645;SDS011;10984;45.712;4.800;2023-07-31T12:19:34;4.70;;;1.52;;
21645;SDS011;10984;45.712;4.800;2023-07-31T12:22:00;3.88;;;1.63;;
21645;SDS011;10984;45.712;4.800;2023-07-31T12:24:27;3.90;;;1.63;;
21645;SDS011;10984;45.712;4.800;2023-07-31T12:26:53;8.30;;;1.85;;
21645;SDS011;10984;45.712;4.800;2023-07-31T12:29:20;3.55;;;1.75;;
21645;SDS011;10984;45.712;4.800;2023-07-31T12:31:46;4.35;;;1.83;;
21645;SDS011;10984;45.712;4.800;2023-07-31T12:37:07;4.43;;;1.73;;
21645;SDS011;10984;45.712;4.800;2023-07-31T12:39:34;6.63;;;2.03;;
21645;SDS011;10984;45.712;4.800;2023-07-31T12:42:00;6.75;;;1.50;;
21645;SDS011;10984;45.712;4.800;2023-07-31T12:44:26;5.32;;;1.67;;
21645;SDS011;10984;45.712;4.800;2023-07-31T12:46:53;23.58;;;2.47;;
21645;SDS011;10984;45.712;4.800;2023-07-31T12:49:19;5.05;;;1.65;;
21645;SDS011;10984;45.712;4.800;2023-07-31T12:51:46;3.28;;;1.70;;
21645;SDS011;10984;45.712;4.800;2023-07-31T12:54:12;6.53;;;1.92;;
21645;SDS011;10984;45.712;4.800;2023-07-31T12:56:39;3.83;;;1.80;;
21645;SDS011;10984;45.712;4.800;2023-07-31T12:59:06;5.72;;;1.73;;
21645;SDS011;10984;45.712;4.800;2023-07-31T13:01:32;5.43;;;1.88;;
21645;SDS011;10984;45.712;4.800;2023-07-31T13:03:58;6.90;;;1.83;;
21645;SDS011;10984;45.712;4.800;2023-07-31T13:06:25;7.00;;;1.65;;
21645;SDS011;10984;45.712;4.800;2023-07-31T13:08:51;6.80;;;1.90;;
21645;SDS011;10984;45.712;4.800;2023-07-31T13:11:18;6.05;;;1.45;;
21645;SDS011;10984;45.712;4.800;2023-07-31T13:13:44;6.05;;;2.00;;
21645;SDS011;10984;45.712;4.800;2023-07-31T13:16:10;6.55;;;1.88;;
21645;SDS011;10984;45.712;4.800;2023-07-31T13:18:37;7.43;;;1.70;;
21645;SDS011;10984;45.712;4.800;2023-07-31T13:21:03;4.45;;;1.60;;
21645;SDS011;10984;45.712;4.800;2023-07-31T13:23:29;3.45;;;1.70;;
21645;SDS011;10984;45.712;4.800;2023-07-31T13:25:56;5.25;;;1.75;;
21645;SDS011;10984;45.712;4.800;2023-07-31T13:28:22;4.63;;;2.00;;
21645;SDS011;10984;45.712;4.800;2023-07-31T13:31:07;4.55;;;1.60;;
21645;SDS011;10984;45.712;4.800;2023-07-31T13:33:33;6.45;;;1.50;;
21645;SDS011;10984;45.712;4.800;2023-07-31T13:36:00;4.18;;;1.73;;
21645;SDS011;10984;45.712;4.800;2023-07-31T13:38:26;4.50;;;1.92;;
21645;SDS011;10984;45.712;4.800;2023-07-31T13:40:52;3.92;;;1.67;;
21645;SDS011;10984;45.712;4.800;2023-07-31T13:43:19;3.85;;;1.50;;
21645;SDS011;10984;45.712;4.800;2023-07-31T13:45:45;5.82;;;1.63;;
21645;SDS011;10984;45.712;4.800;2023-07-31T13:48:11;4.90;;;1.80;;
21645;SDS011;10984;45.712;4.800;2023-07-31T13:50:38;6.00;;;2.35;;
21645;SDS011;10984;45.712;4.800;2023-07-31T13:53:04;4.72;;;1.92;;
21645;SDS011;10984;45.712;4.800;2023-07-31T13:55:30;7.03;;;2.13;;
21645;SDS011;10984;45.712;4.800;2023-07-31T13:57:56;5.55;;;1.90;;
21645;SDS011;10984;45.712;4.800;2023-07-31T14:00:23;6.15;;;2.30;;
21645;SDS011;10984;45.712;4.800;2023-07-31T14:02:49;5.00;;;1.77;;
21645;SDS011;10984;45.712;4.800;2023-07-31T14:05:15;5.25;;;2.38;;
21645;SDS011;10984;45.712;4.800;2023-07-31T14:07:41;5.32;;;1.70;;
21645;SDS011;10984;45.712;4.800;2023-07-31T14:10:08;4.18;;;1.60;;
21645;SDS011;10984;45.712;4.800;2023-07-31T14:12:35;4.80;;;1.90;;
21645;SDS011;10984;45.712;4.800;2023-07-31T14:15:01;4.07;;;1.67;;
21645;SDS011;10984;45.712;4.800;2023-07-31T14:17:28;4.57;;;1.90;;
21645;SDS011;10984;45.712;4.800;2023-07-31T14:19:54;4.75;;;1.60;;
21645;SDS011;10984;45.712;4.800;2023-07-31T14:25:05;4.38;;;1.80;;
21645;SDS011;10984;45.712;4.800;2023-07-31T14:27:32;7.43;;;2.08;;
21645;SDS011;10984;45.712;4.800;2023-07-31T14:29:59;4.30;;;2.03;;
21645;SDS011;10984;45.712;4.800;2023-07-31T14:32:25;5.65;;;1.85;;
21645;SDS011;10984;45.712;4.800;2023-07-31T14:34:51;7.13;;;1.90;;
21645;SDS011;10984;45.712;4.800;2023-07-31T14:37:19;5.80;;;1.90;;
21645;SDS011;10984;45.712;4.800;2023-07-31T14:39:46;4.45;;;1.90;;
21645;SDS011;10984;45.712;4.800;2023-07-31T14:42:12;5.45;;;1.92;;
21645;SDS011;10984;45.712;4.800;2023-07-31T14:44:38;3.63;;;1.60;;
21645;SDS011;10984;45.712;4.800;2023-07-31T14:47:05;5.25;;;1.55;;
21645;SDS011;10984;45.712;4.800;2023-07-31T14:49:31;4.85;;;1.55;;
21645;SDS011;10984;45.712;4.800;2023-07-31T14:51:58;6.30;;;1.77;;
21645;SDS011;10984;45.712;4.800;2023-07-31T14:54:24;4.50;;;1.50;;
21645;SDS011;10984;45.712;4.800;2023-07-31T14:56:50;7.03;;;1.98;;
21645;SDS011;10984;45.712;4.800;2023-07-31T14:59:17;4.18;;;1.90;;
21645;SDS011;10984;45.712;4.800;2023-07-31T15:01:43;4.68;;;1.83;;
21645;SDS011;10984;45.712;4.800;2023-07-31T15:04:10;4.18;;;2.05;;
21645;SDS011;10984;45.712;4.800;2023-07-31T15:06:36;4.53;;;1.73;;
21645;SDS011;10984;45.712;4.800;2023-07-31T15:09:02;3.30;;;1.63;;
21645;SDS011;10984;45.712;4.800;2023-07-31T15:11:29;5.40;;;1.95;;
21645;SDS011;10984;45.712;4.800;2023-07-31T15:13:55;4.45;;;2.20;;
21645;SDS011;10984;45.712;4.800;2023-07-31T15:16:21;3.85;;;1.55;;
21645;SDS011;10984;45.712;4.800;2023-07-31T15:18:48;5.07;;;1.88;;
21645;SDS011;10984;45.712;4.800;2023-07-31T15:21:14;4.13;;;1.90;;
21645;SDS011;10984;45.712;4.800;2023-07-31T15:23:41;4.45;;;1.70;;
21645;SDS011;10984;45.712;4.800;2023-07-31T15:26:07;4.82;;;2.05;;
21645;SDS011;10984;45.712;4.800;2023-07-31T15:28:33;5.68;;;2.15;;
21645;SDS011;10984;45.712;4.800;2023-07-31T15:31:02;3.33;;;1.67;;
21645;SDS011;10984;45.712;4.800;2023-07-31T15:33:28;4.07;;;1.90;;
21645;SDS011;10984;45.712;4.800;2023-07-31T15:35:55;4.72;;;1.58;;
21645;SDS011;10984;45.712;4.800;2023-07-31T15:38:22;3.85;;;1.80;;
21645;SDS011;10984;45.712;4.800;2023-07-31T15:40:49;4.88;;;1.90;;
21645;SDS011;10984;45.712;4.800;2023-07-31T15:43:16;4.75;;;2.00;;
21645;SDS011;10984;45.712;4.800;2023-07-31T15:45:43;3.80;;;1.50;;
21645;SDS011;10984;45.712;4.800;2023-07-31T15:48:10;6.32;;;2.40;;
21645;SDS011;10984;45.712;4.800;2023-07-31T15:50:39;4.88;;;2.08;;
21645;SDS011;10984;45.712;4.800;2023-07-31T15:53:06;4.40;;;1.58;;
21645;SDS011;10984;45.712;4.800;2023-07-31T15:55:33;6.05;;;1.55;;